sensor_id;sensor_type;location;lat;lon;timestamp;pressure;altitude;pressure_sealevel;temperature;humidity
73151;BME280;61354;50.758;6.106;2023-04-16T00:00:10;99670.41;;;6.13;100.00
73151;BME280;61354;50.758;6.106;2023-04-16T00:02:37;99672.06;;;6.14;100.00
73151;BME280;61354;50.758;6.106;2023-04-16T00:05:02;99675.88;;;6.27;100.00
73151;BME280;61354;50.758;6.106;2023-04-16T00:07:28;99673.72;;;6.24;100.00
73151;BME280;61354;50.758;6.106;2023-04-16T00:09:54;99675.44;;;6.11;100.00
73151;BME280;61354;50.758;6.106;2023-04-16T00:12:20;99671.81;;;6.02;100.00
73151;BME280;61354;50.758;6.106;2023-04-16T00:14:45;99665.78;;;6.00;100.00
73151;BME280;61354;50.758;6.106;2023-04-16T00:17:11;99664.47;;;6.20;100.00
73151;BME280;61354;50.758;6.106;2023-04-16T00:19:37;99667.88;;;6.26;100.00
73151;BME280;61354;50.758;6.106;2023-04-16T00:22:03;99671.28;;;6.22;100.00
73151;BME280;61354;50.758;6.106;2023-04-16T00:24:28;99667.66;;;6.13;100.00
73151;BME280;61354;50.758;6.106;2023-04-16T00:26:54;99671.59;;;6.21;100.00
73151;BME280;61354;50.758;6.106;2023-04-16T00:29:20;99662.66;;;6.15;100.00
73151;BME280;61354;50.758;6.106;2023-04-16T00:31:46;99671.34;;;6.09;100.00
73151;BME280;61354;50.758;6.106;2023-04-16T00:34:12;99673.06;;;6.18;100.00
73151;BME280;61354;50.758;6.106;2023-04-16T00:36:37;99666.41;;;6.19;100.00
73151;BME280;61354;50.758;6.106;2023-04-16T00:39:03;99672.06;;;6.14;100.00
73151;BME280;61354;50.758;6.106;2023-04-16T00:41:28;99671.25;;;6.14;100.00
73151;BME280;61354;50.758;6.106;2023-04-16T00:43:54;99664.34;;;6.03;100.00
73151;BME280;61354;50.758;6.106;2023-04-16T00:46:21;99663.97;;;5.95;100.00
73151;BME280;61354;50.758;6.106;2023-04-16T00:48:47;99660.50;;;6.12;100.00
73151;BME280;61354;50.758;6.106;2023-04-16T00:51:13;99663.75;;;6.06;100.00
73151;BME280;61354;50.758;6.106;2023-04-16T00:53:40;99663.56;;;6.02;100.00
73151;BME280;61354;50.758;6.106;2023-04-16T00:56:06;99669.13;;;6.11;100.00
73151;BME280;61354;50.758;6.106;2023-04-16T00:58:33;99664.84;;;6.05;100.00
73151;BME280;61354;50.758;6.106;2023-04-16T01:01:00;99677.28;;;5.93;100.00
73151;BME280;61354;50.758;6.106;2023-04-16T01:03:36;99673.44;;;6.03;100.00
73151;BME280;61354;50.758;6.106;2023-04-16T01:06:02;99673.16;;;6.13;100.00
73151;BME280;61354;50.758;6.106;2023-04-16T01:08:28;99672.44;;;5.99;100.00
73151;BME280;61354;50.758;6.106;2023-04-16T01:10:54;99679.38;;;5.96;100.00
73151;BME280;61354;50.758;6.106;2023-04-16T01:13:19;99683.03;;;6.06;100.00
73151;BME280;61354;50.758;6.106;2023-04-16T01:15:45;99675.81;;;5.96;100.00
73151;BME280;61354;50.758;6.106;2023-04-16T01:18:14;99680.56;;;6.04;100.00
73151;BME280;61354;50.758;6.106;2023-04-16T01:20:40;99675.53;;;5.97;100.00
73151;BME280;61354;50.758;6.106;2023-04-16T01:23:05;99671.84;;;5.88;100.00
73151;BME280;61354;50.758;6.106;2023-04-16T01:25:31;99685.13;;;5.86;100.00
73151;BME280;61354;50.758;6.106;2023-04-16T01:27:56;99677.06;;;5.90;100.00
73151;BME280;61354;50.758;6.106;2023-04-16T01:30:24;99682.00;;;5.79;100.00
73151;BME280;61354;50.758;6.106;2023-04-16T01:32:50;99683.09;;;5.92;100.00
73151;BME280;61354;50.758;6.106;2023-04-16T01:35:16;99683.59;;;5.94;100.00
73151;BME280;61354;50.758;6.106;2023-04-16T01:37:43;99674.81;;;5.92;100.00
73151;BME280;61354;50.758;6.106;2023-04-16T01:40:09;99673.56;;;5.98;100.00
73151;BME280;61354;50.758;6.106;2023-04-16T01:42:34;99676.94;;;5.95;100.00
73151;BME280;61354;50.758;6.106;2023-04-16T01:45:00;99673.56;;;5.98;100.00
73151;BME280;61354;50.758;6.106;2023-04-16T01:47:25;99668.56;;;6.00;100.00
73151;BME280;61354;50.758;6.106;2023-04-16T01:49:51;99681.19;;;6.01;100.00
73151;BME280;61354;50.758;6.106;2023-04-16T01:52:17;99670.16;;;6.01;100.00
73151;BME280;61354;50.758;6.106;2023-04-16T01:54:42;99671.50;;;6.04;100.00
73151;BME280;61354;50.758;6.106;2023-04-16T01:57:08;99668.56;;;6.00;100.00
73151;BME280;61354;50.758;6.106;2023-04-16T01:59:34;99659.78;;;5.98;100.00
73151;BME280;61354;50.758;6.106;2023-04-16T02:02:06;99669.50;;;5.95;100.00
73151;BME280;61354;50.758;6.106;2023-04-16T02:04:32;99667.31;;;6.06;100.00
73151;BME280;61354;50.758;6.106;2023-04-16T02:06:58;99673.25;;;6.00;100.00
73151;BME280;61354;50.758;6.106;2023-04-16T02:09:23;99677.75;;;5.95;100.00
73151;BME280;61354;50.758;6.106;2023-04-16T02:11:49;99678.69;;;5.91;100.00
73151;BME280;61354;50.758;6.106;2023-04-16T02:14:15;99669.41;;;5.87;100.00
73151;BME280;61354;50.758;6.106;2023-04-16T02:16:40;99668.78;;;5.90;100.00
73151;BME280;61354;50.758;6.106;2023-04-16T02:19:06;99671.44;;;5.95;100.00
73151;BME280;61354;50.758;6.106;2023-04-16T02:21:31;99673.69;;;5.93;100.00
73151;BME280;61354;50.758;6.106;2023-04-16T02:23:57;99672.25;;;5.95;100.00
73151;BME280;61354;50.758;6.106;2023-04-16T02:26:22;99664.16;;;5.99;100.00
73151;BME280;61354;50.758;6.106;2023-04-16T02:28:48;99672.16;;;6.09;100.00
73151;BME280;61354;50.758;6.106;2023-04-16T02:31:14;99672.44;;;5.99;100.00
73151;BME280;61354;50.758;6.106;2023-04-16T02:33:42;99671.69;;;6.07;100.00
73151;BME280;61354;50.758;6.106;2023-04-16T02:36:07;99670.41;;;6.13;100.00
73151;BME280;61354;50.758;6.106;2023-04-16T02:38:35;99665.72;;;5.91;100.00
73151;BME280;61354;50.758;6.106;2023-04-16T02:41:01;99672.16;;;6.09;100.00
73151;BME280;61354;50.758;6.106;2023-04-16T02:43:27;99676.56;;;6.10;100.00
73151;BME280;61354;50.758;6.106;2023-04-16T02:45:52;99669.25;;;6.06;100.00
73151;BME280;61354;50.758;6.106;2023-04-16T02:48:18;99665.53;;;6.10;100.00
73151;BME280;61354;50.758;6.106;2023-04-16T02:50:43;99672.94;;;6.01;100.00
73151;BME280;61354;50.758;6.106;2023-04-16T02:53:09;99670.16;;;6.01;100.00
73151;BME280;61354;50.758;6.106;2023-04-16T02:55:35;99673.13;;;6.05;100.00
73151;BME280;61354;50.758;6.106;2023-04-16T02:58:00;99678.94;;;6.03;100.00
73151;BME280;61354;50.758;6.106;2023-04-16T03:00:26;99675.91;;;5.91;100.00
73151;BME280;61354;50.758;6.106;2023-04-16T03:02:51;99674.31;;;5.90;100.00
73151;BME280;61354;50.758;6.106;2023-04-16T03:05:17;99672.59;;;5.80;100.00
73151;BME280;61354;50.758;6.106;2023-04-16T03:07:43;99670.03;;;5.84;100.00
73151;BME280;61354;50.758;6.106;2023-04-16T03:10:08;99674.09;;;5.86;100.00
73151;BME280;61354;50.758;6.106;2023-04-16T03:12:34;99667.72;;;5.77;100.00
73151;BME280;61354;50.758;6.106;2023-04-16T03:15:00;99665.59;;;5.74;100.00
73151;BME280;61354;50.758;6.106;2023-04-16T03:17:26;99672.22;;;5.73;100.00
73151;BME280;61354;50.758;6.106;2023-04-16T03:19:52;99672.16;;;5.87;100.00
73151;BME280;61354;50.758;6.106;2023-04-16T03:22:17;99672.88;;;5.92;100.00
73151;BME280;61354;50.758;6.106;2023-04-16T03:24:43;99665.97;;;5.81;100.00
73151;BME280;61354;50.758;6.106;2023-04-16T03:27:08;99678.81;;;5.86;100.00
73151;BME280;61354;50.758;6.106;2023-04-16T03:29:37;99684.72;;;5.93;100.00
73151;BME280;61354;50.758;6.106;2023-04-16T03:32:03;99680.31;;;5.92;100.00
73151;BME280;61354;50.758;6.106;2023-04-16T03:34:28;99683.59;;;5.94;100.00
73151;BME280;61354;50.758;6.106;2023-04-16T03:36:54;99684.09;;;5.96;100.00
73151;BME280;61354;50.758;6.106;2023-04-16T03:39:20;99681.44;;;5.91;100.00
73151;BME280;61354;50.758;6.106;2023-04-16T03:41:45;99688.38;;;5.88;100.00
73151;BME280;61354;50.758;6.106;2023-04-16T03:44:11;99697.28;;;5.85;100.00
73151;BME280;61354;50.758;6.106;2023-04-16T03:46:36;99694.50;;;5.99;100.00
73151;BME280;61354;50.758;6.106;2023-04-16T03:49:02;99693.88;;;6.02;100.00
73151;BME280;61354;50.758;6.106;2023-04-16T03:51:27;99686.09;;;6.04;100.00
73151;BME280;61354;50.758;6.106;2023-04-16T03:53:53;99685.22;;;5.95;100.00
73151;BME280;61354;50.758;6.106;2023-04-16T03:56:18;99687.97;;;5.95;100.00
73151;BME280;61354;50.758;6.106;2023-04-16T03:58:45;99682.78;;;5.93;100.00
73151;BME280;61354;50.758;6.106;2023-04-16T04:01:10;99688.34;;;6.02;100.00
73151;BME280;61354;50.758;6.106;2023-04-16T04:03:36;99690.59;;;6.00;100.00
73151;BME280;61354;50.758;6.106;2023-04-16T04:06:06;99686.09;;;6.04;100.00
73151;BME280;61354;50.758;6.106;2023-04-16T04:08:31;99684.28;;;6.00;100.00
73151;BME280;61354;50.758;6.106;2023-04-16T04:10:57;99690.34;;;6.10;100.00
73151;BME280;61354;50.758;6.106;2023-04-16T04:13:23;99688.09;;;6.12;100.00
73151;BME280;61354;50.758;6.106;2023-04-16T04:15:48;99689.59;;;5.96;100.00
73151;BME280;61354;50.758;6.106;2023-04-16T04:18:14;99693.88;;;6.02;100.00
73151;BME280;61354;50.758;6.106;2023-04-16T04:20:40;99691.94;;;6.03;100.00
73151;BME280;61354;50.758;6.106;2023-04-16T04:23:06;99687.22;;;6.03;100.00
73151;BME280;61354;50.758;6.106;2023-04-16T04:25:31;99689.56;;;6.10;100.00
73151;BME280;61354;50.758;6.106;2023-04-16T04:27:57;99684.94;;;6.05;100.00
73151;BME280;61354;50.758;6.106;2023-04-16T04:30:22;99688.03;;;6.04;100.00
73151;BME280;61354;50.758;6.106;2023-04-16T04:32:48;99697.56;;;5.97;100.00
73151;BME280;61354;50.758;6.106;2023-04-16T04:35:13;99699.50;;;5.97;100.00
73151;BME280;61354;50.758;6.106;2023-04-16T04:37:39;99697.75;;;6.01;100.00
73151;BME280;61354;50.758;6.106;2023-04-16T04:40:05;99696.63;;;6.02;100.00
73151;BME280;61354;50.758;6.106;2023-04-16T04:42:31;99702.19;;;6.11;100.00
73151;BME280;61354;50.758;6.106;2023-04-16T04:44:56;99700.25;;;6.11;100.00
73151;BME280;61354;50.758;6.106;2023-04-16T04:47:22;99704.00;;;6.15;100.00
73151;BME280;61354;50.758;6.106;2023-04-16T04:49:47;99704.78;;;6.07;100.00
73151;BME280;61354;50.758;6.106;2023-04-16T04:52:13;99708.66;;;6.06;100.00
73151;BME280;61354;50.758;6.106;2023-04-16T04:54:38;99717.34;;;6.00;100.00
73151;BME280;61354;50.758;6.106;2023-04-16T04:57:06;99708.94;;;6.05;100.00
73151;BME280;61354;50.758;6.106;2023-04-16T04:59:32;99726.31;;;6.05;100.00
73151;BME280;61354;50.758;6.106;2023-04-16T05:01:58;99711.72;;;6.05;100.00
73151;BME280;61354;50.758;6.106;2023-04-16T05:04:24;99720.97;;;6.09;100.00
73151;BME280;61354;50.758;6.106;2023-04-16T05:06:49;99715.66;;;6.12;100.00
73151;BME280;61354;50.758;6.106;2023-04-16T05:09:15;99721.03;;;6.17;100.00
73151;BME280;61354;50.758;6.106;2023-04-16T05:11:41;99724.25;;;6.11;100.00
73151;BME280;61354;50.758;6.106;2023-04-16T05:14:06;99720.22;;;6.17;100.00
73151;BME280;61354;50.758;6.106;2023-04-16T05:16:35;99716.66;;;6.16;100.00
73151;BME280;61354;50.758;6.106;2023-04-16T05:19:01;99719.41;;;6.16;100.00
73151;BME280;61354;50.758;6.106;2023-04-16T05:21:27;99720.69;;;6.10;100.00
73151;BME280;61354;50.758;6.106;2023-04-16T05:23:52;99721.03;;;6.17;100.00
73151;BME280;61354;50.758;6.106;2023-04-16T05:26:18;99729.06;;;6.05;100.00
73151;BME280;61354;50.758;6.106;2023-04-16T05:28:44;99722.31;;;6.11;100.00
73151;BME280;61354;50.758;6.106;2023-04-16T05:31:09;99727.56;;;6.21;100.00
73151;BME280;61354;50.758;6.106;2023-04-16T05:33:35;99728.06;;;6.23;100.00
73151;BME280;61354;50.758;6.106;2023-04-16T05:36:00;99739.09;;;6.23;100.00
73151;BME280;61354;50.758;6.106;2023-04-16T05:38:26;99740.41;;;6.26;100.00
73151;BME280;61354;50.758;6.106;2023-04-16T05:40:51;99744.63;;;6.23;100.00
73151;BME280;61354;50.758;6.106;2023-04-16T05:43:17;99743.00;;;6.22;100.00
73151;BME280;61354;50.758;6.106;2023-04-16T05:45:43;99744.09;;;6.21;100.00
73151;BME280;61354;50.758;6.106;2023-04-16T05:48:09;99751.38;;;6.17;100.00
73151;BME280;61354;50.758;6.106;2023-04-16T05:50:35;99756.59;;;6.19;100.00
73151;BME280;61354;50.758;6.106;2023-04-16T05:53:04;99760.03;;;6.25;100.00
73151;BME280;61354;50.758;6.106;2023-04-16T05:55:30;99754.50;;;6.25;100.00
73151;BME280;61354;50.758;6.106;2023-04-16T05:57:55;99759.53;;;6.22;100.00
73151;BME280;61354;50.758;6.106;2023-04-16T06:00:21;99761.16;;;6.23;100.00
73151;BME280;61354;50.758;6.106;2023-04-16T06:02:47;99760.50;;;6.18;100.00
73151;BME280;61354;50.758;6.106;2023-04-16T06:05:12;99770.19;;;6.15;100.00
73151;BME280;61354;50.758;6.106;2023-04-16T06:07:38;99757.59;;;6.23;100.00
73151;BME280;61354;50.758;6.106;2023-04-16T06:10:04;99755.50;;;6.29;100.00
73151;BME280;61354;50.758;6.106;2023-04-16T06:12:30;99765.53;;;6.25;100.00
73151;BME280;61354;50.758;6.106;2023-04-16T06:14:55;99762.53;;;6.35;100.00
73151;BME280;61354;50.758;6.106;2023-04-16T06:17:21;99770.06;;;6.43;100.00
73151;BME280;61354;50.758;6.106;2023-04-16T06:19:47;99760.47;;;6.40;100.00
73151;BME280;61354;50.758;6.106;2023-04-16T06:22:12;99773.56;;;6.35;100.00
73151;BME280;61354;50.758;6.106;2023-04-16T06:24:38;99770.06;;;6.43;100.00
73151;BME280;61354;50.758;6.106;2023-04-16T06:27:04;99774.44;;;6.44;100.00
73151;BME280;61354;50.758;6.106;2023-04-16T06:29:29;99772.50;;;6.44;100.00
73151;BME280;61354;50.758;6.106;2023-04-16T06:31:55;99778.19;;;6.48;100.00
73151;BME280;61354;50.758;6.106;2023-04-16T06:34:21;99771.50;;;6.40;100.00
73151;BME280;61354;50.758;6.106;2023-04-16T06:36:46;99774.31;;;6.49;100.00
73151;BME280;61354;50.758;6.106;2023-04-16T06:39:12;99781.31;;;6.55;100.00
73151;BME280;61354;50.758;6.106;2023-04-16T06:41:37;99782.09;;;6.47;100.00
73151;BME280;61354;50.758;6.106;2023-04-16T06:44:03;99782.16;;;6.56;100.00
73151;BME280;61354;50.758;6.106;2023-04-16T06:46:29;99781.38;;;6.64;100.00
73151;BME280;61354;50.758;6.106;2023-04-16T06:48:55;99782.19;;;6.64;100.00
73151;BME280;61354;50.758;6.106;2023-04-16T06:51:21;99788.47;;;6.56;100.00
73151;BME280;61354;50.758;6.106;2023-04-16T06:53:47;99797.19;;;6.50;100.00
73151;BME280;61354;50.758;6.106;2023-04-16T06:56:13;99779.06;;;6.57;100.00
73151;BME280;61354;50.758;6.106;2023-04-16T06:58:38;99794.47;;;6.58;100.00
73151;BME280;61354;50.758;6.106;2023-04-16T07:01:04;99787.34;;;6.57;100.00
73151;BME280;61354;50.758;6.106;2023-04-16T07:03:30;99793.47;;;6.54;100.00
73151;BME280;61354;50.758;6.106;2023-04-16T07:05:55;99793.06;;;6.61;100.00
73151;BME280;61354;50.758;6.106;2023-04-16T07:08:21;99796.09;;;6.59;100.00
73151;BME280;61354;50.758;6.106;2023-04-16T07:10:47;99796.47;;;6.66;100.00
73151;BME280;61354;50.758;6.106;2023-04-16T07:13:12;99796.34;;;6.71;100.00
73151;BME280;61354;50.758;6.106;2023-04-16T07:15:38;99800.94;;;6.76;100.00
73151;BME280;61354;50.758;6.106;2023-04-16T07:18:04;99806.38;;;6.67;100.00
73151;BME280;61354;50.758;6.106;2023-04-16T07:20:29;99812.56;;;6.64;100.00
73151;BME280;61354;50.758;6.106;2023-04-16T07:22:55;99797.47;;;6.70;100.00
73151;BME280;61354;50.758;6.106;2023-04-16T07:25:21;99809.66;;;6.69;100.00
73151;BME280;61354;50.758;6.106;2023-04-16T07:27:46;99809.34;;;6.71;100.00
73151;BME280;61354;50.758;6.106;2023-04-16T07:30:12;99810.50;;;6.79;100.00
73151;BME280;61354;50.758;6.106;2023-04-16T07:32:37;99815.38;;;6.73;100.00
73151;BME280;61354;50.758;6.106;2023-04-16T07:35:03;99816.00;;;6.70;100.00
73151;BME280;61354;50.758;6.106;2023-04-16T07:37:29;99815.50;;;6.68;100.00
73151;BME280;61354;50.758;6.106;2023-04-16T07:39:55;99813.13;;;6.84;100.00
73151;BME280;61354;50.758;6.106;2023-04-16T07:42:22;99820.56;;;6.75;100.00
73151;BME280;61354;50.758;6.106;2023-04-16T07:44:47;99826.47;;;6.59;100.00
73151;BME280;61354;50.758;6.106;2023-04-16T07:47:13;99823.13;;;6.71;100.00
73151;BME280;61354;50.758;6.106;2023-04-16T07:49:38;99827.22;;;6.73;100.00
73151;BME280;61354;50.758;6.106;2023-04-16T07:52:04;99828.47;;;6.67;100.00
73151;BME280;61354;50.758;6.106;2023-04-16T07:54:30;99834.06;;;6.76;100.00
73151;BME280;61354;50.758;6.106;2023-04-16T07:56:55;99840.88;;;6.79;100.00
73151;BME280;61354;50.758;6.106;2023-04-16T07:59:21;99842.63;;;6.75;100.00
73151;BME280;61354;50.758;6.106;2023-04-16T08:01:47;99836.94;;;6.71;100.00
73151;BME280;61354;50.758;6.106;2023-04-16T08:04:12;99841.50;;;6.76;100.00
73151;BME280;61354;50.758;6.106;2023-04-16T08:06:38;99852.09;;;6.82;100.00
73151;BME280;61354;50.758;6.106;2023-04-16T08:09:04;99844.81;;;6.86;100.00
73151;BME280;61354;50.758;6.106;2023-04-16T08:11:29;99845.63;;;6.87;100.00
73151;BME280;61354;50.758;6.106;2023-04-16T08:13:55;99852.63;;;6.84;100.00
73151;BME280;61354;50.758;6.106;2023-04-16T08:16:21;99848.91;;;6.89;100.00
73151;BME280;61354;50.758;6.106;2023-04-16T08:18:46;99848.91;;;6.89;100.00
73151;BME280;61354;50.758;6.106;2023-04-16T08:21:12;99854.28;;;6.94;100.00
73151;BME280;61354;50.758;6.106;2023-04-16T08:23:37;99855.06;;;6.86;100.00
73151;BME280;61354;50.758;6.106;2023-04-16T08:26:03;99857.53;;;6.96;100.00
73151;BME280;61354;50.758;6.106;2023-04-16T08:28:28;99856.91;;;6.99;100.00
73151;BME280;61354;50.758;6.106;2023-04-16T08:30:54;99869.53;;;6.91;100.00
73151;BME280;61354;50.758;6.106;2023-04-16T08:33:20;99864.72;;;6.97;100.00
73151;BME280;61354;50.758;6.106;2023-04-16T08:35:45;99873.63;;;6.94;100.00
73151;BME280;61354;50.758;6.106;2023-04-16T08:38:11;99867.81;;;7.04;100.00
73151;BME280;61354;50.758;6.106;2023-04-16T08:40:39;99880.63;;;7.00;100.00
73151;BME280;61354;50.758;6.106;2023-04-16T08:43:08;99881.34;;;7.06;100.00
73151;BME280;61354;50.758;6.106;2023-04-16T08:45:37;99874.47;;;7.03;100.00
73151;BME280;61354;50.758;6.106;2023-04-16T08:48:04;99880.38;;;7.10;100.00
73151;BME280;61354;50.758;6.106;2023-04-16T08:50:31;99879.41;;;7.15;100.00
73151;BME280;61354;50.758;6.106;2023-04-16T08:52:59;99885.56;;;7.12;100.00
73151;BME280;61354;50.758;6.106;2023-04-16T08:55:46;99887.38;;;7.16;100.00
73151;BME280;61354;50.758;6.106;2023-04-16T08:58:14;99886.53;;;7.07;100.00
73151;BME280;61354;50.758;6.106;2023-04-16T09:00:43;99892.91;;;7.16;100.00
73151;BME280;61354;50.758;6.106;2023-04-16T09:03:10;99892.91;;;7.16;100.00
73151;BME280;61354;50.758;6.106;2023-04-16T09:05:36;99897.09;;;7.05;100.00
73151;BME280;61354;50.758;6.106;2023-04-16T09:08:04;99897.91;;;7.06;100.00
73151;BME280;61354;50.758;6.106;2023-04-16T09:10:30;99900.72;;;7.14;100.00
73151;BME280;61354;50.758;6.106;2023-04-16T09:12:56;99896.19;;;7.18;100.00
73151;BME280;61354;50.758;6.106;2023-04-16T09:15:22;99904.31;;;7.23;100.00
73151;BME280;61354;50.758;6.106;2023-04-16T09:17:48;99903.31;;;7.19;100.00
73151;BME280;61354;50.758;6.106;2023-04-16T09:20:14;99906.56;;;7.21;100.00
73151;BME280;61354;50.758;6.106;2023-04-16T09:22:40;99906.41;;;7.18;100.00
73151;BME280;61354;50.758;6.106;2023-04-16T09:25:06;99903.38;;;7.28;100.00
73151;BME280;61354;50.758;6.106;2023-04-16T09:27:31;99898.81;;;7.23;100.00
73151;BME280;61354;50.758;6.106;2023-04-16T09:29:57;99902.41;;;7.33;100.00
73151;BME280;61354;50.758;6.106;2023-04-16T09:32:25;99912.31;;;7.34;100.00
73151;BME280;61354;50.758;6.106;2023-04-16T09:35:00;99910.22;;;7.31;100.00
73151;BME280;61354;50.758;6.106;2023-04-16T09:37:27;99907.94;;;7.33;100.00
73151;BME280;61354;50.758;6.106;2023-04-16T09:40:01;99918.50;;;7.31;100.00
73151;BME280;61354;50.758;6.106;2023-04-16T09:42:34;99910.69;;;7.33;100.00
73151;BME280;61354;50.758;6.106;2023-04-16T09:45:02;99915.38;;;7.23;100.00
73151;BME280;61354;50.758;6.106;2023-04-16T09:47:44;99923.88;;;7.36;100.00
73151;BME280;61354;50.758;6.106;2023-04-16T09:50:15;99930.97;;;7.51;100.00
73151;BME280;61354;50.758;6.106;2023-04-16T09:52:43;99922.81;;;7.54;100.00
73151;BME280;61354;50.758;6.106;2023-04-16T09:55:10;99920.72;;;7.51;100.00
73151;BME280;61354;50.758;6.106;2023-04-16T09:57:37;99920.72;;;7.51;100.00
73151;BME280;61354;50.758;6.106;2023-04-16T10:00:05;99920.06;;;7.54;100.00
73151;BME280;61354;50.758;6.106;2023-04-16T10:02:32;99921.53;;;7.52;100.00
73151;BME280;61354;50.758;6.106;2023-04-16T10:05:00;99926.53;;;7.50;100.00
73151;BME280;61354;50.758;6.106;2023-04-16T10:07:28;99929.50;;;7.53;100.00
73151;BME280;61354;50.758;6.106;2023-04-16T10:09:54;99922.38;;;7.61;100.00
73151;BME280;61354;50.758;6.106;2023-04-16T10:12:20;99925.31;;;7.64;100.00
73151;BME280;61354;50.758;6.106;2023-04-16T10:14:46;99933.69;;;7.82;100.00
73151;BME280;61354;50.758;6.106;2023-04-16T10:17:11;99917.88;;;7.73;100.00
73151;BME280;61354;50.758;6.106;2023-04-16T10:19:38;99930.09;;;7.81;100.00
73151;BME280;61354;50.758;6.106;2023-04-16T10:22:04;99930.09;;;7.81;100.00
73151;BME280;61354;50.758;6.106;2023-04-16T10:24:32;99931.72;;;7.82;100.00
73151;BME280;61354;50.758;6.106;2023-04-16T10:26:58;99930.84;;;7.64;100.00
73151;BME280;61354;50.758;6.106;2023-04-16T10:29:25;99932.03;;;7.72;100.00
73151;BME280;61354;50.758;6.106;2023-04-16T10:31:52;99938.66;;;7.71;100.00
73151;BME280;61354;50.758;6.106;2023-04-16T10:34:19;99943.25;;;7.76;100.00
73151;BME280;61354;50.758;6.106;2023-04-16T10:36:49;99934.44;;;7.65;100.00
73151;BME280;61354;50.758;6.106;2023-04-16T10:39:19;99938.56;;;7.85;100.00
73151;BME280;61354;50.758;6.106;2023-04-16T10:41:45;99941.94;;;7.73;100.00
73151;BME280;61354;50.758;6.106;2023-04-16T10:44:12;99937.44;;;7.86;100.00
73151;BME280;61354;50.758;6.106;2023-04-16T10:46:39;99938.72;;;7.80;100.00
73151;BME280;61354;50.758;6.106;2023-04-16T10:49:21;99950.78;;;7.84;100.00
73151;BME280;61354;50.758;6.106;2023-04-16T10:51:58;99937.75;;;7.84;100.00
73151;BME280;61354;50.758;6.106;2023-04-16T10:54:28;99946.16;;;7.70;100.00
73151;BME280;61354;50.758;6.106;2023-04-16T10:56:56;99944.88;;;7.77;100.00
73151;BME280;61354;50.758;6.106;2023-04-16T10:59:23;99942.44;;;7.75;100.00
73151;BME280;61354;50.758;6.106;2023-04-16T11:01:59;99943.13;;;7.81;100.00
73151;BME280;61354;50.758;6.106;2023-04-16T11:04:32;99937.03;;;7.70;100.00
73151;BME280;61354;50.758;6.106;2023-04-16T11:12:22;99940.50;;;7.76;100.00
73151;BME280;61354;50.758;6.106;2023-04-16T11:14:52;99944.75;;;7.82;100.00
73151;BME280;61354;50.758;6.106;2023-04-16T11:17:19;99940.03;;;7.91;100.00
73151;BME280;61354;50.758;6.106;2023-04-16T11:19:45;99941.53;;;7.88;100.00
73151;BME280;61354;50.758;6.106;2023-04-16T11:22:12;99953.56;;;7.92;100.00
73151;BME280;61354;50.758;6.106;2023-04-16T11:24:39;99941.41;;;8.02;100.00
73151;BME280;61354;50.758;6.106;2023-04-16T11:27:06;99939.16;;;8.13;100.00
73151;BME280;61354;50.758;6.106;2023-04-16T11:29:32;99942.72;;;8.13;100.00
73151;BME280;61354;50.758;6.106;2023-04-16T11:31:57;99951.03;;;8.22;100.00
73151;BME280;61354;50.758;6.106;2023-04-16T11:34:24;99937.84;;;8.10;100.00
73151;BME280;61354;50.758;6.106;2023-04-16T11:36:51;99945.03;;;8.29;100.00
73151;BME280;61354;50.758;6.106;2023-04-16T11:39:17;99945.03;;;8.29;100.00
73151;BME280;61354;50.758;6.106;2023-04-16T11:46:45;99946.72;;;8.38;100.00
73151;BME280;61354;50.758;6.106;2023-04-16T11:49:11;99945.38;;;8.36;100.00
73151;BME280;61354;50.758;6.106;2023-04-16T11:51:40;99952.69;;;8.32;100.00
73151;BME280;61354;50.758;6.106;2023-04-16T11:54:07;99951.34;;;8.20;100.00
73151;BME280;61354;50.758;6.106;2023-04-16T11:56:34;99952.69;;;8.32;100.00
73151;BME280;61354;50.758;6.106;2023-04-16T11:59:21;99949.97;;;8.49;100.00
73151;BME280;61354;50.758;6.106;2023-04-16T12:01:49;99950.31;;;8.56;100.00
73151;BME280;61354;50.758;6.106;2023-04-16T12:04:16;99954.88;;;8.69;100.00
73151;BME280;61354;50.758;6.106;2023-04-16T12:07:25;99950.81;;;8.76;100.00
73151;BME280;61354;50.758;6.106;2023-04-16T12:09:32;99949.19;;;8.92;100.00
73151;BME280;61354;50.758;6.106;2023-04-16T12:11:59;99953.91;;;9.00;100.00
73151;BME280;61354;50.758;6.106;2023-04-16T12:14:25;99946.69;;;9.16;100.00
73151;BME280;61354;50.758;6.106;2023-04-16T12:16:51;99956.81;;;9.12;100.00
73151;BME280;61354;50.758;6.106;2023-04-16T12:19:16;99959.06;;;9.28;100.00
73151;BME280;61354;50.758;6.106;2023-04-16T12:21:43;99949.78;;;9.24;100.00
73151;BME280;61354;50.758;6.106;2023-04-16T12:24:11;99956.13;;;9.24;100.00
73151;BME280;61354;50.758;6.106;2023-04-16T12:26:40;99950.09;;;9.22;100.00
73151;BME280;61354;50.758;6.106;2023-04-16T12:29:18;99951.94;;;9.09;100.00
73151;BME280;61354;50.758;6.106;2023-04-16T12:31:45;99955.00;;;9.16;100.00
73151;BME280;61354;50.758;6.106;2023-04-16T12:34:11;99952.75;;;8.92;100.00
73151;BME280;61354;50.758;6.106;2023-04-16T12:36:40;99946.56;;;9.04;100.00
73151;BME280;61354;50.758;6.106;2023-04-16T12:39:06;99946.53;;;9.13;100.00
73151;BME280;61354;50.758;6.106;2023-04-16T12:41:34;99951.41;;;9.07;100.00
73151;BME280;61354;50.758;6.106;2023-04-16T12:44:08;99953.53;;;9.10;100.00
73151;BME280;61354;50.758;6.106;2023-04-16T12:46:40;99946.69;;;9.16;100.00
73151;BME280;61354;50.758;6.106;2023-04-16T12:49:06;99945.56;;;9.17;100.00
73151;BME280;61354;50.758;6.106;2023-04-16T12:51:33;99950.91;;;9.23;100.00
73151;BME280;61354;50.758;6.106;2023-04-16T12:54:00;99954.16;;;9.25;100.00
73151;BME280;61354;50.758;6.106;2023-04-16T12:56:26;99954.69;;;9.18;100.00
73151;BME280;61354;50.758;6.106;2023-04-16T12:58:52;99950.44;;;9.12;100.00
73151;BME280;61354;50.758;6.106;2023-04-16T13:01:18;99954.16;;;9.25;100.00
73151;BME280;61354;50.758;6.106;2023-04-16T13:03:44;99954.50;;;9.23;100.00
73151;BME280;61354;50.758;6.106;2023-04-16T13:06:11;99955.81;;;9.17;100.00